Time;durP1;ratioP1;P1;durP2;ratioP2;P2;SDS_P1;SDS_P2;PMS_P1;PMS_P2;Temp;Humidity;BMP_temperature;BMP_pressure;BME280_temperature;BME280_humidity;BME280_pressure;Samples;Min_cycle;Max_cycle;Signal;HPM_P1;HPM_P2
2023/02/22 00:01:49;;;;;;;19.97;4.90;;;9.90;1.00;;;;;;6159754;23;20427;-80
2023/02/22 00:04:19;;;;;;;17.20;6.07;;;9.90;1.00;;;;;;6162574;23;20430;-80
2023/02/22 00:06:52;;;;;;;19.67;5.83;;;10.00;1.00;;;;;;6145060;23;20481;-79
2023/02/22 00:09:24;;;;;;;17.30;5.97;;;10.00;1.00;;;;;;6156710;23;20496;-80
2023/02/22 00:11:54;;;;;;;15.63;5.00;;;10.00;1.00;;;;;;6173459;23;20391;-80
2023/02/22 00:14:26;;;;;;;17.67;4.70;;;10.00;1.00;;;;;;6178711;23;20417;-80
2023/02/22 00:16:58;;;;;;;16.63;4.93;;;9.90;1.00;;;;;;6158931;23;21114;-79
2023/02/22 00:19:26;;;;;;;13.60;4.87;;;9.90;1.00;;;;;;6134364;23;20461;-78
2023/02/22 00:21:54;;;;;;;13.17;4.90;;;9.90;1.00;;;;;;6158030;23;20421;-80
2023/02/22 00:24:24;;;;;;;13.23;5.13;;;9.80;1.00;;;;;;6162724;23;20435;-81
2023/02/22 00:26:55;;;;;;;18.90;4.77;;;9.80;1.00;;;;;;6153614;23;20508;-80
2023/02/22 00:29:25;;;;;;;14.93;5.23;;;9.80;1.00;;;;;;6165321;23;20506;-79
2023/02/22 00:31:52;;;;;;;16.53;4.83;;;9.90;1.00;;;;;;6161783;23;21163;-78
2023/02/22 00:34:23;;;;;;;11.80;4.00;;;9.90;1.00;;;;;;6163593;23;20497;-81
2023/02/22 00:36:50;;;;;;;20.47;5.70;;;9.90;1.00;;;;;;6163802;23;20415;-78
2023/02/22 00:39:19;;;;;;;16.73;4.10;;;9.80;1.00;;;;;;6162107;23;20498;-79
2023/02/22 00:41:46;;;;;;;18.30;5.63;;;9.70;1.00;;;;;;6162077;23;20427;-78
2023/02/22 00:44:14;;;;;;;15.80;5.20;;;9.60;1.00;;;;;;6160900;23;20513;-78
2023/02/22 00:46:41;;;;;;;16.00;4.67;;;9.60;1.00;;;;;;6158240;23;20522;-83
2023/02/22 00:49:08;;;;;;;18.83;4.03;;;9.60;1.00;;;;;;6154709;23;20450;-79
2023/02/22 00:51:37;;;;;;;17.63;4.50;;;9.70;1.00;;;;;;6176847;23;20514;-78
2023/02/22 00:54:07;;;;;;;19.50;5.00;;;9.80;1.00;;;;;;6162087;23;20536;-79
2023/02/22 00:56:36;;;;;;;17.33;4.83;;;9.80;1.00;;;;;;6160947;23;20418;-79
2023/02/22 00:59:04;;;;;;;16.10;6.20;;;9.80;1.00;;;;;;6161729;23;20478;-78
2023/02/22 01:01:52;;;;;;;16.77;5.70;;;9.80;1.00;;;;;;6136715;23;20495;-78
2023/02/22 01:07:41;;;;;;;13.60;4.03;;;9.80;1.00;;;;;;6160151;23;20415;-80
2023/02/22 01:10:12;;;;;;;14.70;4.60;;;9.80;1.00;;;;;;6157966;23;20469;-79
2023/02/22 01:12:39;;;;;;;15.70;4.67;;;9.60;1.00;;;;;;6163612;23;21104;-81
2023/02/22 01:15:10;;;;;;;16.83;5.50;;;9.60;1.00;;;;;;6162489;23;20980;-78
2023/02/22 01:17:40;;;;;;;18.47;5.00;;;9.50;1.00;;;;;;6147548;23;20426;-78
2023/02/22 01:20:11;;;;;;;17.93;4.23;;;9.40;1.00;;;;;;6183089;23;20426;-79
2023/02/22 01:22:39;;;;;;;18.13;4.80;;;9.30;1.00;;;;;;6160716;23;20499;-79
2023/02/22 01:25:09;;;;;;;15.03;4.73;;;9.30;1.00;;;;;;6163741;23;20492;-78
2023/02/22 01:27:38;;;;;;;19.10;5.50;;;9.30;1.00;;;;;;6160717;23;20481;-77
2023/02/22 01:30:08;;;;;;;16.83;4.40;;;9.30;1.00;;;;;;6160681;23;20911;-79
2023/02/22 01:32:36;;;;;;;17.03;4.17;;;9.30;1.00;;;;;;6161241;23;20435;-78
2023/02/22 01:35:07;;;;;;;17.07;4.87;;;9.30;1.00;;;;;;6160864;23;20446;-78
2023/02/22 01:37:35;;;;;;;16.13;5.50;;;9.20;1.00;;;;;;6134982;23;20419;-79
2023/02/22 01:40:05;;;;;;;16.90;5.50;;;9.10;1.00;;;;;;6155626;23;20431;-80
2023/02/22 01:42:33;;;;;;;22.67;5.93;;;9.10;1.00;;;;;;6164998;23;20517;-80
2023/02/22 01:45:33;;;;;;;15.40;5.33;;;9.00;1.00;;;;;;6158638;23;20438;-79
2023/02/22 01:48:04;;;;;;;22.13;5.37;;;8.80;1.00;;;;;;6138533;23;20425;-80
2023/02/22 01:50:37;;;;;;;17.13;4.40;;;8.70;1.00;;;;;;6158617;23;20420;-79
2023/02/22 01:53:05;;;;;;;13.63;4.83;;;8.60;1.00;;;;;;6171231;23;20513;-78
2023/02/22 01:55:33;;;;;;;20.50;4.90;;;8.60;1.00;;;;;;6169892;23;20473;-79
2023/02/22 01:58:01;;;;;;;14.63;4.93;;;8.50;1.00;;;;;;6162681;23;20427;-81
2023/02/22 02:00:31;;;;;;;19.10;5.47;;;8.30;1.00;;;;;;6160781;23;20403;-81
2023/02/22 02:03:05;;;;;;;15.30;5.33;;;8.30;1.00;;;;;;6159497;23;20543;-80
2023/02/22 02:05:44;;;;;;;13.83;5.13;;;8.20;1.00;;;;;;6171224;23;20411;-79
2023/02/22 02:08:24;;;;;;;15.67;5.10;;;8.10;1.00;;;;;;6168830;23;20422;-80
2023/02/22 02:10:56;;;;;;;15.40;5.23;;;8.00;1.00;;;;;;6144277;23;20413;-81
2023/02/22 02:13:25;;;;;;;15.10;4.50;;;7.80;1.00;;;;;;6172752;23;20398;-80
2023/02/22 02:15:55;;;;;;;13.80;5.30;;;7.80;1.00;;;;;;6169575;23;20430;-80
2023/02/22 02:18:27;;;;;;;19.60;5.80;;;7.80;1.00;;;;;;6171108;23;20434;-79
2023/02/22 02:21:35;;;;;;;17.63;5.47;;;7.80;1.00;;;;;;6171257;23;20394;-79
2023/02/22 02:24:38;;;;;;;12.67;4.73;;;7.80;1.00;;;;;;6169500;23;20390;-78
2023/02/22 02:27:18;;;;;;;15.40;5.40;;;7.90;1.00;;;;;;6166618;23;20569;-79
2023/02/22 02:30:27;;;;;;;16.20;4.80;;;7.80;1.00;;;;;;6170768;23;20406;-79
2023/02/22 02:33:00;;;;;;;15.60;4.70;;;7.90;1.00;;;;;;6170988;23;20419;-79
2023/02/22 02:35:47;;;;;;;18.00;6.57;;;7.80;1.00;;;;;;6173314;23;20481;-79
2023/02/22 02:38:26;;;;;;;15.93;5.50;;;7.80;1.00;;;;;;6170114;23;20438;-80
2023/02/22 02:41:06;;;;;;;19.47;5.47;;;7.70;1.00;;;;;;6171453;23;20405;-80
2023/02/22 02:43:43;;;;;;;14.17;5.80;;;7.70;1.00;;;;;;6170994;23;20430;-80
2023/02/22 02:46:35;;;;;;;20.40;4.93;;;7.70;1.00;;;;;;6172263;23;20407;-79
2023/02/22 02:49:16;;;;;;;21.40;5.33;;;7.70;1.00;;;;;;6172722;23;20401;-80
2023/02/22 02:52:04;;;;;;;15.60;4.80;;;7.60;1.00;;;;;;6171801;23;20399;-81
2023/02/22 02:54:37;;;;;;;16.02;4.70;;;7.50;1.00;;;;;;6171113;23;20398;-80
2023/02/22 02:57:05;;;;;;;17.33;5.47;;;7.60;1.00;;;;;;6173103;23;20199;-80
2023/02/22 02:59:37;;;;;;;17.50;5.90;;;7.60;1.00;;;;;;6171532;23;20422;-80
2023/02/22 03:02:23;;;;;;;16.30;6.13;;;7.60;1.00;;;;;;6168878;23;20381;-78
2023/02/22 03:05:14;;;;;;;16.37;5.97;;;7.50;1.00;;;;;;6170104;23;20405;-78
2023/02/22 03:07:56;;;;;;;17.60;4.90;;;7.50;1.00;;;;;;6168135;23;20373;-78
2023/02/22 03:10:44;;;;;;;19.80;5.73;;;7.50;1.00;;;;;;6168882;23;20396;-80
2023/02/22 03:19:20;;;;;;;15.57;5.63;;;7.40;1.00;;;;;;6177935;22;20395;-81
2023/02/22 03:22:03;;;;;;;15.90;6.10;;;7.30;1.00;;;;;;6237552;22;20442;-81
2023/02/22 03:24:35;;;;;;;16.00;6.77;;;7.30;1.00;;;;;;6224548;22;20439;-81
2023/02/22 03:27:08;;;;;;;18.97;6.37;;;7.40;1.00;;;;;;6224626;23;20428;-81
2023/02/22 03:29:39;;;;;;;17.43;5.50;;;7.50;1.00;;;;;;6221038;22;20487;-80
2023/02/22 03:32:13;;;;;;;19.80;6.10;;;7.50;1.00;;;;;;6231086;22;20443;-80
2023/02/22 03:34:49;;;;;;;16.33;7.45;;;7.50;1.00;;;;;;6229387;22;20421;-78
2023/02/22 03:37:24;;;;;;;17.70;6.33;;;7.60;1.00;;;;;;6230609;22;20247;-79
2023/02/22 03:40:12;;;;;;;21.00;6.83;;;7.60;1.00;;;;;;6230953;22;20428;-79
2023/02/22 03:42:43;;;;;;;18.80;6.53;;;7.60;1.00;;;;;;6230452;22;20507;-77
2023/02/22 03:45:20;;;;;;;17.37;7.93;;;7.60;1.00;;;;;;6230138;22;20443;-80
2023/02/22 03:47:52;;;;;;;14.35;6.20;;;7.50;1.00;;;;;;6221696;22;20483;-78
2023/02/22 03:50:24;;;;;;;17.50;6.90;;;7.40;1.00;;;;;;6222242;22;20255;-79
2023/02/22 03:52:57;;;;;;;22.03;6.73;;;7.40;1.00;;;;;;6221623;22;20435;-78
2023/02/22 03:55:27;;;;;;;16.80;6.05;;;7.40;1.00;;;;;;6233505;22;20399;-80
2023/02/22 03:57:58;;;;;;;25.13;7.17;;;7.40;1.00;;;;;;6223559;22;20284;-80
2023/02/22 04:00:29;;;;;;;11.73;6.47;;;7.40;1.00;;;;;;6219361;23;20472;-77
2023/02/22 04:02:57;;;;;;;19.73;6.83;;;7.50;1.00;;;;;;6227214;22;20431;-79
2023/02/22 04:05:25;;;;;;;19.70;6.40;;;7.50;1.00;;;;;;6252009;22;20517;-78
2023/02/22 04:07:54;;;;;;;16.43;6.03;;;7.50;1.00;;;;;;6249340;22;20415;-79
2023/02/22 04:10:23;;;;;;;20.87;6.93;;;7.60;1.00;;;;;;6253537;22;20411;-80
2023/02/22 04:12:53;;;;;;;18.27;7.60;;;7.60;1.00;;;;;;6254864;22;20419;-79
2023/02/22 04:15:25;;;;;;;17.25;5.97;;;7.50;1.00;;;;;;6262264;22;20622;-80
2023/02/22 04:17:52;;;;;;;14.63;6.27;;;7.50;1.00;;;;;;6260089;22;20216;-80
2023/02/22 04:20:26;;;;;;;21.60;6.65;;;7.40;1.00;;;;;;6261359;22;20430;-78
2023/02/22 04:22:57;;;;;;;30.40;8.30;;;7.40;1.00;;;;;;6262574;22;20727;-78
2023/02/22 04:25:25;;;;;;;18.60;7.13;;;7.40;1.00;;;;;;6265121;22;20418;-79
2023/02/22 04:27:55;;;;;;;17.60;7.27;;;7.30;1.00;;;;;;6265133;22;20405;-79
2023/02/22 04:30:27;;;;;;;25.57;7.90;;;7.20;1.00;;;;;;6266274;22;20415;-80
2023/02/22 04:32:57;;;;;;;17.00;7.13;;;7.10;1.00;;;;;;6238816;22;20416;-77
2023/02/22 04:35:38;;;;;;;;;;;;;;;;;;;;;
2023/02/22 04:38:08;;;;;;;19.05;7.07;;;6.90;1.00;;;;;;6263217;22;50971;-79
2023/02/22 04:40:36;;;;;;;16.40;6.53;;;6.90;1.00;;;;;;6266082;22;20227;-80
2023/02/22 04:43:06;;;;;;;21.10;7.20;;;6.90;1.00;;;;;;6265816;22;20403;-81
2023/02/22 04:45:35;;;;;;;16.75;6.47;;;6.90;1.00;;;;;;6265488;22;20212;-81
2023/02/22 04:48:06;;;;;;;21.38;6.97;;;6.80;1.00;;;;;;6262829;22;20213;-80
2023/02/22 04:50:35;;;;;;;22.83;8.03;;;6.80;1.00;;;;;;6262368;22;20202;-80
2023/02/22 04:53:07;;;;;;;21.90;8.18;;;6.90;1.00;;;;;;6261100;22;20407;-79
2023/02/22 04:55:36;;;;;;;15.73;7.72;;;6.90;1.00;;;;;;6263750;22;20292;-80
2023/02/22 04:58:05;;;;;;;20.42;8.40;;;6.90;1.00;;;;;;6256604;22;20211;-80
2023/02/22 05:00:34;;;;;;;18.67;6.82;;;6.90;1.00;;;;;;6249264;22;20297;-78
2023/02/22 05:03:08;;;;;;;19.80;6.68;;;6.90;1.00;;;;;;6252240;22;20218;-79
2023/02/22 05:05:38;;;;;;;18.38;7.68;;;6.90;1.00;;;;;;6250289;22;20215;-79
2023/02/22 05:08:10;;;;;;;18.45;6.65;;;6.80;1.00;;;;;;6251639;22;20690;-79
2023/02/22 05:10:37;;;;;;;25.80;7.97;;;6.80;1.00;;;;;;6251631;22;20222;-78
2023/02/22 05:13:04;;;;;;;21.60;8.10;;;6.90;1.00;;;;;;6253593;22;20749;-78
2023/02/22 05:15:31;;;;;;;29.05;9.60;;;6.90;1.00;;;;;;6252639;22;20416;-78
2023/02/22 05:17:58;;;;;;;20.13;7.93;;;6.80;1.00;;;;;;6250772;22;20677;-76
2023/02/22 05:20:36;;;;;;;24.80;11.77;;;6.70;1.00;;;;;;6252727;22;20744;-79
2023/02/22 05:23:10;;;;;;;22.00;8.77;;;6.60;1.00;;;;;;6249651;22;20852;-78
2023/02/22 05:25:38;;;;;;;15.38;7.72;;;6.60;1.00;;;;;;6251577;22;20291;-77
2023/02/22 05:28:14;;;;;;;20.42;7.05;;;6.50;1.00;;;;;;6230096;22;20217;-78
2023/02/22 05:30:43;;;;;;;26.03;8.40;;;6.60;1.00;;;;;;6265312;22;20269;-81
2023/02/22 05:33:16;;;;;;;20.35;7.78;;;6.60;1.00;;;;;;6252804;22;21014;-77
2023/02/22 05:35:47;;;;;;;17.88;7.65;;;6.60;1.00;;;;;;6253651;22;20293;-78
2023/02/22 05:38:16;;;;;;;25.40;8.00;;;6.70;1.00;;;;;;6250790;22;20211;-78
2023/02/22 05:40:43;;;;;;;24.37;8.27;;;6.80;1.00;;;;;;6247835;22;20223;-80
2023/02/22 05:43:24;;;;;;;18.15;8.18;;;6.70;1.00;;;;;;6249937;22;21273;-78
2023/02/22 05:45:56;;;;;;;18.75;7.32;;;6.80;1.00;;;;;;6250524;22;20233;-78
2023/02/22 05:48:35;;;;;;;18.77;7.90;;;6.80;1.00;;;;;;6245721;22;20249;-77
2023/02/22 05:51:18;;;;;;;16.77;7.00;;;6.90;1.00;;;;;;6261970;22;20229;-78
2023/02/22 05:53:50;;;;;;;25.77;9.15;;;7.00;1.00;;;;;;6248539;22;20217;-76
2023/02/22 05:56:24;;;;;;;23.10;9.63;;;7.00;1.00;;;;;;6253075;22;20209;-77
2023/02/22 05:58:57;;;;;;;20.88;7.03;;;7.00;1.00;;;;;;6254257;22;20420;-79
2023/02/22 06:01:37;;;;;;;20.70;7.53;;;7.10;1.00;;;;;;6258067;22;20226;-78
2023/02/22 06:04:04;;;;;;;18.42;8.65;;;7.10;1.00;;;;;;6228880;22;20446;-77
2023/02/22 06:06:36;;;;;;;21.88;7.82;;;7.20;1.00;;;;;;6229032;22;20223;-78
2023/02/22 06:09:06;;;;;;;17.65;7.68;;;7.20;1.00;;;;;;6254312;22;20237;-78
2023/02/22 06:11:37;;;;;;;17.03;7.47;;;7.30;1.00;;;;;;6260325;22;20206;-79
2023/02/22 06:14:07;;;;;;;21.95;10.18;;;7.20;1.00;;;;;;6256949;22;20518;-79
2023/02/22 06:16:38;;;;;;;23.85;13.43;;;7.20;1.00;;;;;;6252162;22;20210;-79
2023/02/22 06:19:05;;;;;;;21.20;9.13;;;7.20;1.00;;;;;;6254091;22;20321;-77
2023/02/22 06:21:32;;;;;;;24.50;10.93;;;7.30;1.00;;;;;;6252924;22;20215;-77
2023/02/22 06:23:59;;;;;;;17.40;10.15;;;7.30;1.00;;;;;;6265443;22;20212;-80
2023/02/22 06:26:28;;;;;;;25.08;9.15;;;7.30;1.00;;;;;;6266517;22;20228;-78
2023/02/22 06:28:56;;;;;;;23.20;11.18;;;7.30;1.00;;;;;;6263886;22;20258;-79
2023/02/22 06:31:27;;;;;;;21.23;9.27;;;7.40;1.00;;;;;;6266785;22;20207;-79
2023/02/22 06:53:17;;;;;;;24.17;10.00;;;7.80;1.00;;;;;;6102245;23;20400;-80
2023/02/22 06:55:46;;;;;;;21.60;9.40;;;7.90;1.00;;;;;;6123907;23;20431;-81
2023/02/22 07:09:16;;;;;;;30.87;10.77;;;8.20;1.00;;;;;;6213527;22;20443;-80
2023/02/22 07:11:56;;;;;;;22.50;8.63;;;8.30;1.00;;;;;;6207093;23;20464;-81
2023/02/22 07:17:36;;;;;;;20.10;8.00;;;8.40;1.00;;;;;;6216328;23;20432;-81
2023/02/22 07:20:15;;;;;;;21.17;8.17;;;8.50;1.00;;;;;;6213926;23;20467;-82
2023/02/22 07:23:06;;;;;;;24.90;10.93;;;8.40;1.00;;;;;;6210953;22;20412;-80
2023/02/22 07:28:38;;;;;;;24.50;9.57;;;8.40;1.00;;;;;;6181014;23;20398;-76
2023/02/22 07:31:09;;;;;;;22.63;8.00;;;8.40;1.00;;;;;;6201752;23;20406;-78
2023/02/22 07:33:36;;;;;;;14.17;6.90;;;8.40;1.00;;;;;;6197088;23;20276;-76
2023/02/22 07:36:16;;;;;;;19.97;7.00;;;8.50;1.00;;;;;;6211542;23;20398;-81
2023/02/22 07:38:49;;;;;;;19.73;8.87;;;8.60;1.00;;;;;;6200358;23;20431;-78
2023/02/22 07:41:16;;;;;;;19.20;7.87;;;8.60;1.00;;;;;;6203116;23;20414;-78
2023/02/22 07:43:56;;;;;;;21.13;8.37;;;8.60;1.00;;;;;;6200991;23;20393;-83
2023/02/22 07:46:26;;;;;;;23.53;7.20;;;8.60;1.00;;;;;;6201956;23;21157;-78
2023/02/22 07:48:59;;;;;;;17.00;5.87;;;8.70;1.00;;;;;;6195530;23;21389;-82
2023/02/22 07:51:27;;;;;;;22.20;7.00;;;8.70;1.00;;;;;;6214823;22;20414;-79
2023/02/22 07:53:57;;;;;;;18.10;7.40;;;8.80;1.00;;;;;;6210419;23;20395;-82
2023/02/22 07:56:26;;;;;;;20.33;6.57;;;8.90;1.00;;;;;;6204017;23;20396;-80
2023/02/22 07:59:06;;;;;;;20.97;7.60;;;8.90;1.00;;;;;;6215923;23;20389;-81
2023/02/22 08:01:37;;;;;;;18.67;6.60;;;9.00;1.00;;;;;;6219578;23;20429;-77
2023/02/22 08:04:12;;;;;;;17.77;6.73;;;9.10;1.00;;;;;;6207956;23;21276;-84
2023/02/22 08:06:39;;;;;;;22.17;7.30;;;9.10;1.00;;;;;;6202056;23;20995;-82
2023/02/22 08:09:16;;;;;;;25.53;7.47;;;9.10;1.00;;;;;;6201999;23;20468;-82
2023/02/22 08:11:48;;;;;;;24.03;7.90;;;9.20;1.00;;;;;;6204244;23;20408;-79
2023/02/22 08:14:17;;;;;;;20.47;7.30;;;9.20;1.00;;;;;;6202873;23;20576;-82
2023/02/22 08:16:47;;;;;;;18.97;7.23;;;9.10;1.00;;;;;;6204101;23;20438;-80
2023/02/22 08:19:29;;;;;;;14.10;5.70;;;9.20;1.00;;;;;;6204651;23;21678;-80
2023/02/22 08:21:58;;;;;;;23.13;7.87;;;9.20;1.00;;;;;;6206001;23;20408;-79
2023/02/22 08:40:39;;;;;;;27.20;9.70;;;9.40;1.00;;;;;;5888235;24;20394;-82
2023/02/22 08:43:19;;;;;;;;;;;;;;;;;;;;;
2023/02/22 08:48:38;;;;;;;16.67;6.80;;;9.50;1.00;;;;;;6087197;23;21197;-83
2023/02/22 08:51:50;;;;;;;;;;;;;;;;;;;;;
2023/02/22 09:09:38;;;;;;;20.07;7.30;;;9.80;1.00;;;;;;5870995;24;20447;-83
2023/02/22 10:05:46;;;;;;;17.37;7.30;;;11.20;1.00;;;;;;6201731;22;20389;-81
2023/02/22 10:18:59;;;;;;;15.90;5.20;;;11.00;1.00;;;;;;5967772;23;20427;-84
2023/02/22 10:22:00;;;;;;;16.23;5.27;;;11.10;1.00;;;;;;6045986;23;20441;-81
2023/02/22 10:25:08;;;;;;;13.20;5.80;;;11.00;1.00;;;;;;6071771;23;20417;-81
2023/02/22 10:33:48;;;;;;;17.37;5.23;;;11.30;1.00;;;;;;6093491;23;21085;-82
2023/02/22 10:36:40;;;;;;;;;;;;;;;;;;;;;
2023/02/22 10:39:57;;;;;;;15.27;5.40;;;11.40;1.00;;;;;;6080377;23;50688;-80
2023/02/22 10:42:38;;;;;;;18.03;5.30;;;11.60;1.00;;;;;;6081899;23;20382;-80
2023/02/22 10:45:27;;;;;;;13.57;4.73;;;11.70;1.00;;;;;;6073875;23;20403;-85
2023/02/22 10:48:10;;;;;;;24.20;6.27;;;11.70;1.00;;;;;;6128343;23;20375;-85
2023/02/22 10:50:40;;;;;;;17.30;6.23;;;11.80;1.00;;;;;;6196329;23;20386;-84
2023/02/22 10:53:09;;;;;;;14.97;4.47;;;11.80;1.00;;;;;;6204839;23;20381;-80
2023/02/22 11:13:46;;;;;;;15.07;5.67;;;11.70;1.00;;;;;;6216045;22;20420;-78
2023/02/22 11:16:49;;;;;;;13.37;4.60;;;11.60;1.00;;;;;;6267383;22;20379;-79
2023/02/22 11:19:28;;;;;;;16.07;5.23;;;11.70;1.00;;;;;;6266992;22;20402;-80
2023/02/22 11:22:15;;;;;;;13.60;4.40;;;11.80;1.00;;;;;;6265483;22;20419;-81
2023/02/22 11:24:59;;;;;;;16.63;5.93;;;11.70;1.00;;;;;;6262550;22;20423;-81
2023/02/22 11:27:47;;;;;;;11.50;4.40;;;11.60;1.00;;;;;;6264923;22;20400;-81
2023/02/22 11:30:29;;;;;;;13.73;5.10;;;11.70;1.00;;;;;;6266923;22;20397;-79
2023/02/22 11:33:07;;;;;;;16.10;4.73;;;11.80;1.00;;;;;;6259193;22;20438;-78
2023/02/22 11:38:40;;;;;;;17.37;5.57;;;12.00;1.00;;;;;;6265926;22;20420;-79
2023/02/22 11:41:37;;;;;;;15.43;4.97;;;12.10;1.00;;;;;;6260022;22;20400;-80
2023/02/22 11:44:42;;;;;;;18.03;6.20;;;11.80;1.00;;;;;;6259462;22;20420;-81
2023/02/22 11:47:18;;;;;;;17.43;7.07;;;11.70;1.00;;;;;;6234989;22;20412;-80
2023/02/22 11:49:52;;;;;;;17.00;4.73;;;11.90;1.00;;;;;;6251848;22;20436;-78
2023/02/22 11:52:28;;;;;;;14.53;5.53;;;12.00;1.00;;;;;;6250969;22;20432;-80
2023/02/22 11:55:23;;;;;;;13.13;5.40;;;12.10;1.00;;;;;;6255266;22;20412;-79
2023/02/22 11:58:07;;;;;;;15.93;5.10;;;12.20;1.00;;;;;;6256224;22;20419;-78
2023/02/22 12:00:58;;;;;;;13.60;5.20;;;12.10;1.00;;;;;;6256141;22;20472;-76
2023/02/22 12:04:06;;;;;;;15.70;4.77;;;12.00;1.00;;;;;;6256538;22;20427;-78
2023/02/22 12:06:56;;;;;;;13.00;3.97;;;11.90;1.00;;;;;;6243331;22;20407;-79
2023/02/22 12:09:31;;;;;;;11.87;4.30;;;11.50;1.00;;;;;;6252019;22;20443;-79
2023/02/22 12:12:18;;;;;;;16.63;7.13;;;11.30;1.00;;;;;;6240607;22;20431;-76
2023/02/22 12:14:55;;;;;;;16.93;5.53;;;11.40;1.00;;;;;;6245028;22;20450;-80
2023/02/22 12:17:33;;;;;;;16.40;4.27;;;11.40;1.00;;;;;;6253498;22;20427;-76
2023/02/22 12:20:09;;;;;;;18.00;5.53;;;11.50;1.00;;;;;;6255485;22;20412;-78
2023/02/22 12:22:48;;;;;;;22.10;5.40;;;11.50;1.00;;;;;;6255290;22;21093;-78
2023/02/22 12:25:25;;;;;;;18.37;5.93;;;11.80;1.00;;;;;;6253947;22;21009;-77
2023/02/22 12:27:58;;;;;;;14.60;5.50;;;11.80;1.00;;;;;;6254764;22;20403;-78
2023/02/22 13:47:20;;;;;;;16.80;4.73;;;11.90;1.00;;;;;;5851440;24;20401;-81
2023/02/22 13:50:24;;;;;;;12.40;3.80;;;11.80;1.00;;;;;;5968674;24;20404;-84
2023/02/22 13:52:54;;;;;;;11.90;3.73;;;11.60;1.00;;;;;;5994733;23;20878;-82
2023/02/22 13:55:30;;;;;;;11.53;3.60;;;11.80;1.00;;;;;;6024500;23;20557;-81
2023/02/22 13:58:03;;;;;;;14.73;4.30;;;12.00;1.00;;;;;;5985412;23;20427;-81
2023/02/22 14:00:43;;;;;;;12.97;4.13;;;11.90;1.00;;;;;;6021261;23;20421;-81
2023/02/22 14:03:34;;;;;;;14.87;4.70;;;11.90;1.00;;;;;;6046695;23;20425;-81
2023/02/22 14:06:02;;;;;;;13.40;4.63;;;11.80;1.00;;;;;;6094416;23;20456;-81
2023/02/22 14:08:46;;;;;;;11.80;4.10;;;11.80;1.00;;;;;;6103743;23;20529;-81
2023/02/22 14:11:55;;;;;;;10.83;3.57;;;11.80;1.00;;;;;;6100288;23;21051;-82
2023/02/22 14:14:25;;;;;;;15.87;3.73;;;11.60;1.00;;;;;;6101954;23;20392;-82
2023/02/22 14:17:23;;;;;;;16.50;6.07;;;11.50;1.00;;;;;;6111866;23;20506;-82
2023/02/22 14:20:28;;;;;;;12.03;4.17;;;11.60;1.00;;;;;;6045629;23;21503;-80
2023/02/22 14:23:18;;;;;;;15.03;4.20;;;11.70;1.00;;;;;;6092299;23;20424;-83
2023/02/22 14:25:45;;;;;;;11.53;3.00;;;11.80;1.00;;;;;;6100199;23;20906;-82
2023/02/22 14:28:36;;;;;;;11.70;4.07;;;11.80;1.00;;;;;;6106630;23;20425;-81
2023/02/22 14:31:15;;;;;;;12.73;3.90;;;11.70;1.00;;;;;;6109034;23;20397;-82
2023/02/22 14:33:58;;;;;;;17.87;4.27;;;11.60;1.00;;;;;;6138201;23;20427;-83
2023/02/22 14:36:29;;;;;;;14.70;3.37;;;11.60;1.00;;;;;;6139866;23;20420;-82
2023/02/22 14:39:06;;;;;;;14.80;3.73;;;11.60;1.00;;;;;;6138462;23;20419;-84
2023/02/22 14:41:35;;;;;;;12.80;4.53;;;11.50;1.00;;;;;;6132860;23;20888;-83
2023/02/22 14:44:05;;;;;;;15.20;4.50;;;11.50;1.00;;;;;;6140093;23;20451;-84
2023/02/22 14:46:39;;;;;;;13.47;4.50;;;11.40;1.00;;;;;;6139102;23;20479;-83
2023/02/22 14:49:17;;;;;;;20.47;5.30;;;11.30;1.00;;;;;;6136892;23;21233;-85
2023/02/22 14:51:54;;;;;;;15.07;3.60;;;11.30;1.00;;;;;;6138564;23;20915;-84
2023/02/22 14:54:27;;;;;;;14.33;6.47;;;11.30;1.00;;;;;;6141407;23;20431;-84
2023/02/22 14:57:10;;;;;;;17.23;5.30;;;11.30;1.00;;;;;;6133497;23;20415;-85
2023/02/22 14:59:50;;;;;;;28.73;4.90;;;11.40;1.00;;;;;;6137137;23;20424;-84
2023/02/22 15:02:24;;;;;;;10.10;3.80;;;11.40;1.00;;;;;;6139249;23;20487;-86
2023/02/22 15:04:52;;;;;;;13.33;4.30;;;11.30;1.00;;;;;;6139100;23;20447;-83
2023/02/22 15:07:27;;;;;;;9.90;3.60;;;11.40;1.00;;;;;;6135175;23;21057;-84
2023/02/22 15:10:16;;;;;;;10.47;4.10;;;11.40;1.00;;;;;;6137277;23;20469;-83
2023/02/22 15:12:52;;;;;;;13.17;4.60;;;11.40;1.00;;;;;;6134105;23;20430;-84
2023/02/22 15:15:21;;;;;;;10.50;4.60;;;11.30;1.00;;;;;;6139520;23;21062;-82
2023/02/22 15:17:55;;;;;;;13.20;4.70;;;11.10;1.00;;;;;;6140115;23;20504;-85
2023/02/22 15:20:25;;;;;;;13.77;4.30;;;11.00;1.00;;;;;;6138769;23;20424;-85
2023/02/22 15:22:58;;;;;;;16.00;4.90;;;10.90;1.00;;;;;;6141677;23;20419;-84
2023/02/22 15:25:29;;;;;;;11.23;5.10;;;10.90;1.00;;;;;;6138657;23;20559;-84
2023/02/22 15:28:02;;;;;;;11.83;4.10;;;10.80;1.00;;;;;;6169381;23;20459;-83
2023/02/22 15:30:33;;;;;;;12.87;4.57;;;10.80;1.00;;;;;;6171637;23;20406;-82
2023/02/22 15:33:22;;;;;;;13.10;4.10;;;10.70;1.00;;;;;;6164410;23;20482;-81
2023/02/22 15:35:54;;;;;;;20.33;5.87;;;10.80;1.00;;;;;;6173382;23;20395;-86
2023/02/22 15:38:27;;;;;;;9.37;3.37;;;10.80;1.00;;;;;;6174974;23;20423;-84
2023/02/22 15:41:02;;;;;;;17.60;4.50;;;10.70;1.00;;;;;;6170424;23;20466;-84
2023/02/22 15:43:31;;;;;;;13.57;4.77;;;10.60;1.00;;;;;;6165143;23;20397;-84
2023/02/22 15:45:59;;;;;;;13.33;5.40;;;10.60;1.00;;;;;;6165045;23;20423;-84
2023/02/22 15:48:32;;;;;;;10.27;4.77;;;10.50;1.00;;;;;;6142220;23;20395;-84
2023/02/22 15:51:05;;;;;;;15.37;5.03;;;10.30;1.00;;;;;;6167725;23;21151;-82
2023/02/22 15:53:42;;;;;;;17.67;5.00;;;10.30;1.00;;;;;;6166721;23;20425;-84
2023/02/22 15:56:15;;;;;;;14.40;4.80;;;10.40;1.00;;;;;;6168091;23;21005;-84
2023/02/22 15:58:44;;;;;;;11.33;4.13;;;10.40;1.00;;;;;;6166659;23;20934;-82
2023/02/22 16:01:16;;;;;;;24.30;5.20;;;10.40;1.00;;;;;;6167247;23;20447;-82
2023/02/22 16:03:48;;;;;;;13.20;4.13;;;10.40;1.00;;;;;;6168078;23;20474;-83
2023/02/22 16:06:27;;;;;;;13.00;4.00;;;10.40;1.00;;;;;;6168443;23;20443;-85
2023/02/22 16:08:57;;;;;;;12.03;3.67;;;10.40;1.00;;;;;;6155020;23;21084;-83
2023/02/22 16:11:29;;;;;;;14.13;4.20;;;10.40;1.00;;;;;;6165153;23;20455;-82
2023/02/22 16:14:00;;;;;;;20.43;5.73;;;10.50;1.00;;;;;;6166319;23;20465;-84
2023/02/22 16:16:33;;;;;;;12.30;4.70;;;10.50;1.00;;;;;;6166682;23;21209;-82
2023/02/22 16:19:38;;;;;;;10.00;3.63;;;10.50;1.00;;;;;;6163448;23;20470;-83
2023/02/22 16:22:25;;;;;;;14.90;4.83;;;10.30;1.00;;;;;;6038109;23;20406;-83
2023/02/22 16:24:53;;;;;;;17.93;4.80;;;10.40;1.00;;;;;;6162300;23;20936;-82
2023/02/22 16:27:23;;;;;;;12.33;4.10;;;10.30;1.00;;;;;;6168328;23;20762;-82
2023/02/22 16:30:08;;;;;;;11.50;4.77;;;10.10;1.00;;;;;;6170589;23;20399;-83
2023/02/22 16:32:36;;;;;;;18.03;4.80;;;10.00;1.00;;;;;;6168836;23;20430;-84
2023/02/22 16:35:16;;;;;;;10.77;4.30;;;10.00;1.00;;;;;;6170235;23;20467;-83
2023/02/22 16:37:44;;;;;;;10.60;4.27;;;9.90;1.00;;;;;;6168946;23;20438;-83
2023/02/22 16:40:21;;;;;;;16.27;3.97;;;9.90;1.00;;;;;;6170926;23;20391;-83
2023/02/22 16:42:50;;;;;;;13.20;4.43;;;9.80;1.00;;;;;;6169180;23;20418;-85
2023/02/22 16:45:18;;;;;;;12.90;4.37;;;9.90;1.00;;;;;;6143192;23;20446;-83
2023/02/22 16:47:45;;;;;;;18.53;5.57;;;9.90;1.00;;;;;;6165680;23;20445;-81
2023/02/22 16:50:20;;;;;;;11.10;4.90;;;9.90;1.00;;;;;;6167999;23;20446;-82
2023/02/22 16:52:48;;;;;;;19.53;5.50;;;9.80;1.00;;;;;;6167678;23;21016;-82
2023/02/22 16:55:19;;;;;;;12.40;3.97;;;9.70;1.00;;;;;;6166487;23;20568;-81
2023/02/22 16:57:49;;;;;;;13.30;4.37;;;9.60;1.00;;;;;;6167884;23;20846;-83
2023/02/22 17:00:29;;;;;;;12.87;4.70;;;9.50;1.00;;;;;;6167733;23;20419;-81
2023/02/22 17:02:58;;;;;;;20.53;5.57;;;9.50;1.00;;;;;;6166591;23;20426;-80
2023/02/22 17:05:27;;;;;;;14.60;8.10;;;9.40;1.00;;;;;;6167609;23;20411;-83
2023/02/22 17:07:53;;;;;;;11.60;4.30;;;9.30;1.00;;;;;;6169109;23;20423;-81
2023/02/22 17:10:21;;;;;;;12.70;5.30;;;9.30;1.00;;;;;;6168506;23;20422;-82
2023/02/22 17:12:52;;;;;;;18.30;7.30;;;9.30;1.00;;;;;;6165929;23;20422;-82
2023/02/22 17:15:24;;;;;;;15.70;4.80;;;9.20;1.00;;;;;;6167738;23;20438;-82
2023/02/22 17:17:54;;;;;;;16.67;7.07;;;9.20;1.00;;;;;;6173844;23;20414;-85
2023/02/22 17:20:28;;;;;;;16.37;6.57;;;9.10;1.00;;;;;;6169189;23;20411;-82
2023/02/22 17:22:58;;;;;;;13.47;6.20;;;9.10;1.00;;;;;;6170270;23;20402;-82
2023/02/22 17:25:28;;;;;;;14.70;5.53;;;9.10;1.00;;;;;;6168484;23;20886;-81
2023/02/22 17:27:55;;;;;;;15.50;5.33;;;9.00;1.00;;;;;;6167633;23;20410;-83
2023/02/22 17:30:22;;;;;;;13.80;5.07;;;9.00;1.00;;;;;;6167296;23;20489;-82
2023/02/22 17:32:50;;;;;;;16.43;8.20;;;9.00;1.00;;;;;;6163591;23;20466;-81
2023/02/22 17:35:19;;;;;;;14.03;5.47;;;8.90;1.00;;;;;;6164291;23;20426;-83
2023/02/22 17:37:47;;;;;;;23.07;7.23;;;8.90;1.00;;;;;;6164426;23;20422;-83
2023/02/22 17:40:16;;;;;;;12.80;5.67;;;9.00;1.00;;;;;;6165397;23;20382;-82
2023/02/22 17:42:44;;;;;;;13.63;5.80;;;8.90;1.00;;;;;;6167739;23;20395;-83
2023/02/22 17:45:13;;;;;;;12.23;5.50;;;8.90;1.00;;;;;;6166950;23;20447;-82
2023/02/22 17:47:42;;;;;;;17.03;5.90;;;8.90;1.00;;;;;;6161792;23;20854;-81